createdAt,value
2018-05-06T00:01:04.272Z,61.54
2018-05-06T00:03:31.784Z,61.72
2018-05-06T00:05:59.302Z,62.18
2018-05-06T00:08:26.785Z,62.13
2018-05-06T00:10:54.319Z,62.22
2018-05-06T00:13:21.797Z,62.41
2018-05-06T00:15:49.309Z,63.04
2018-05-06T00:18:16.784Z,62.98
2018-05-06T00:20:44.298Z,63.17
2018-05-06T00:23:11.772Z,61.98
2018-05-06T00:25:39.296Z,62.61
2018-05-06T00:28:06.797Z,63.00
2018-05-06T00:30:34.301Z,62.73
2018-05-06T00:33:01.785Z,62.77
2018-05-06T00:35:29.309Z,61.97
2018-05-06T00:37:56.802Z,61.12
2018-05-06T00:40:24.325Z,61.03
2018-05-06T00:42:51.829Z,61.32
2018-05-06T00:45:19.323Z,61.09
2018-05-06T00:47:46.845Z,59.32
2018-05-06T00:50:14.392Z,59.62
2018-05-06T00:52:41.897Z,61.25
2018-05-06T00:55:09.381Z,60.78
2018-05-06T00:57:36.889Z,61.65
2018-05-06T01:00:05.254Z,60.21
2018-05-06T01:02:32.772Z,60.40
2018-05-06T01:05:00.545Z,59.57
2018-05-06T01:07:28.049Z,59.66
2018-05-06T01:09:55.528Z,58.97
2018-05-06T01:12:23.033Z,58.88
2018-05-06T01:14:50.531Z,58.49
2018-05-06T01:17:18.010Z,59.27
2018-05-06T01:19:45.509Z,60.27
2018-05-06T01:22:12.989Z,59.92
2018-05-06T01:24:40.493Z,60.90
2018-05-06T01:27:07.970Z,62.25
2018-05-06T01:29:35.477Z,62.95
2018-05-06T01:32:02.965Z,62.18
2018-05-06T01:34:30.469Z,62.73
2018-05-06T01:36:57.945Z,63.04
2018-05-06T01:39:25.451Z,63.65
2018-05-06T01:41:52.945Z,63.65
2018-05-06T01:44:20.452Z,60.74
2018-05-06T01:46:47.929Z,60.66
2018-05-06T01:49:15.434Z,60.93
2018-05-06T01:51:42.917Z,60.67
2018-05-06T01:54:10.449Z,58.32
2018-05-06T01:56:37.940Z,59.38
2018-05-06T01:59:05.441Z,59.16
2018-05-06T02:01:32.917Z,59.50
2018-05-06T02:04:00.537Z,61.06
2018-05-06T02:06:28.089Z,60.16
2018-05-06T02:08:55.593Z,61.79
2018-05-06T02:11:23.096Z,61.26
2018-05-06T02:13:50.609Z,61.87
2018-05-06T02:16:18.113Z,62.96
2018-05-06T02:18:45.600Z,63.72
2018-05-06T02:21:13.101Z,63.12
2018-05-06T02:23:40.600Z,63.80
2018-05-06T02:26:08.129Z,61.83
2018-05-06T02:28:35.609Z,61.77
2018-05-06T02:31:03.119Z,61.92
2018-05-06T02:33:30.609Z,63.86
2018-05-06T02:35:58.139Z,65.71
2018-05-06T02:38:25.621Z,66.60
2018-05-06T02:40:53.124Z,67.01
2018-05-06T02:43:20.605Z,67.53
2018-05-06T02:45:48.241Z,68.41
2018-05-06T02:48:15.745Z,68.51
2018-05-06T02:50:43.229Z,69.17
2018-05-06T02:53:10.746Z,69.32
2018-05-06T02:55:38.221Z,69.67
2018-05-06T02:58:05.789Z,70.14
2018-05-06T03:00:33.288Z,69.68
2018-05-06T03:03:00.813Z,69.25
2018-05-06T03:05:28.288Z,69.05
2018-05-06T03:07:55.789Z,69.55
2018-05-06T03:10:23.273Z,69.55
2018-05-06T03:12:50.777Z,69.48
2018-05-06T03:15:18.266Z,70.18
2018-05-06T03:17:45.778Z,70.42
2018-05-06T03:20:13.273Z,70.66
2018-05-06T03:22:40.808Z,70.17
2018-05-06T03:25:08.310Z,70.40
2018-05-06T03:27:35.825Z,70.53
2018-05-06T03:30:03.309Z,70.08
2018-05-06T03:32:30.792Z,69.36
2018-05-06T03:34:58.293Z,69.88
2018-05-06T03:37:25.769Z,70.71
2018-05-06T03:39:53.281Z,70.68
2018-05-06T03:42:20.758Z,70.53
2018-05-06T03:44:48.289Z,70.74
2018-05-06T03:47:15.784Z,70.84
2018-05-06T03:49:43.297Z,70.63
2018-05-06T03:52:10.793Z,70.66
2018-05-06T03:54:38.297Z,70.71
2018-05-06T03:57:17.668Z,67.35
2018-05-06T03:59:57.056Z,67.19
2018-05-06T04:02:39.409Z,63.21
2018-05-06T04:05:06.952Z,61.94
2018-05-06T04:07:34.480Z,60.62
2018-05-06T04:10:01.970Z,60.48
2018-05-06T04:12:29.452Z,58.14
2018-05-06T04:14:56.952Z,59.26
2018-05-06T04:17:24.432Z,58.31
2018-05-06T04:19:51.943Z,57.83
2018-05-06T04:22:19.421Z,57.51
2018-05-06T04:24:46.933Z,57.19
2018-05-06T04:27:14.419Z,57.65
2018-05-06T04:29:41.953Z,57.48
2018-05-06T04:32:09.436Z,57.65
2018-05-06T04:34:36.978Z,57.19
2018-05-06T04:37:04.468Z,57.71
2018-05-06T04:39:31.989Z,59.13
2018-05-06T04:41:59.467Z,59.86
2018-05-06T04:44:27.163Z,60.04
2018-05-06T04:46:54.645Z,59.27
2018-05-06T04:49:22.128Z,56.91
2018-05-06T04:51:49.653Z,52.24
2018-05-06T04:54:17.145Z,48.62
2018-05-06T04:56:44.656Z,47.32
2018-05-06T04:59:12.137Z,46.46
2018-05-06T05:01:39.641Z,45.44
2018-05-06T05:04:07.137Z,44.26
2018-05-06T05:06:34.661Z,42.70
2018-05-06T05:09:02.148Z,43.21
2018-05-06T05:11:29.658Z,41.89
2018-05-06T05:13:57.136Z,42.40
2018-05-06T05:16:24.640Z,44.34
2018-05-06T05:18:52.125Z,43.48
2018-05-06T05:21:19.601Z,44.27
2018-05-06T05:23:47.197Z,46.09
2018-05-06T05:26:14.718Z,43.70
2018-05-06T05:28:42.229Z,41.70
2018-05-06T05:31:09.720Z,41.12
2018-05-06T05:33:37.248Z,38.69
2018-05-06T05:36:04.737Z,39.24
2018-05-06T05:38:32.241Z,40.26
2018-05-06T05:40:59.720Z,39.62
2018-05-06T05:43:27.261Z,39.52
2018-05-06T05:45:54.761Z,38.67
2018-05-06T05:48:22.265Z,39.42
2018-05-06T05:50:49.744Z,39.22
2018-05-06T05:53:17.233Z,38.99
2018-05-06T05:55:44.765Z,38.66
2018-05-06T05:58:12.280Z,39.12
2018-05-06T06:00:39.790Z,39.27
2018-05-06T06:03:07.269Z,38.55
2018-05-06T06:05:34.779Z,38.63
2018-05-06T06:08:02.257Z,39.18
2018-05-06T06:10:29.761Z,38.80
2018-05-06T06:12:57.245Z,39.10
2018-05-06T06:15:24.774Z,39.39
2018-05-06T06:17:52.261Z,40.40
2018-05-06T06:20:19.768Z,39.45
2018-05-06T06:22:47.253Z,39.65
2018-05-06T06:25:15.038Z,39.20
2018-05-06T06:27:42.527Z,39.77
2018-05-06T06:30:10.006Z,39.33
2018-05-06T06:32:37.509Z,40.11
2018-05-06T06:35:04.993Z,39.13
2018-05-06T06:37:32.501Z,39.78
2018-05-06T06:39:59.997Z,39.17
2018-05-06T06:42:27.510Z,39.22
2018-05-06T06:44:55.025Z,37.96
2018-05-06T06:47:22.629Z,38.36
2018-05-06T06:49:50.137Z,39.45
2018-05-06T06:52:17.641Z,39.28
2018-05-06T06:54:45.125Z,38.39
2018-05-06T06:57:12.657Z,38.26
2018-05-06T06:59:40.156Z,38.15
2018-05-06T07:02:07.660Z,38.77
2018-05-06T07:04:35.144Z,39.00
2018-05-06T07:07:02.652Z,39.14
2018-05-06T07:09:30.169Z,37.94
2018-05-06T07:11:57.688Z,37.27
2018-05-06T07:14:25.189Z,37.95
2018-05-06T07:16:52.690Z,38.31
2018-05-06T07:19:20.273Z,38.20
2018-05-06T07:21:47.702Z,37.54
2018-05-06T07:24:15.201Z,38.20
2018-05-06T07:26:42.677Z,37.93
2018-05-06T07:29:10.205Z,37.48
2018-05-06T07:31:37.755Z,37.70
2018-05-06T07:34:05.213Z,37.91
2018-05-06T07:36:32.689Z,37.46
2018-05-06T07:39:00.265Z,38.69
2018-05-06T07:41:27.782Z,37.10
2018-05-06T07:43:55.533Z,37.62
2018-05-06T07:46:23.013Z,36.79
2018-05-06T07:48:50.523Z,37.14
2018-05-06T07:51:18.025Z,37.66
2018-05-06T07:53:45.513Z,37.13
2018-05-06T07:56:13.029Z,37.18
2018-05-06T07:58:40.512Z,37.00
2018-05-06T08:01:08.013Z,37.75
2018-05-06T08:03:35.493Z,37.11
2018-05-06T08:06:03.004Z,37.04
2018-05-06T08:08:30.486Z,36.63
2018-05-06T08:10:57.988Z,36.57
2018-05-06T08:13:25.477Z,37.16
2018-05-06T08:15:53.004Z,37.20
2018-05-06T08:18:20.488Z,36.92
2018-05-06T08:20:47.997Z,35.93
2018-05-06T08:23:15.504Z,36.45
2018-05-06T08:25:42.995Z,37.12
2018-05-06T08:28:10.525Z,37.33
2018-05-06T08:30:38.009Z,37.33
2018-05-06T08:33:05.513Z,36.53
2018-05-06T08:35:33.010Z,36.64
2018-05-06T08:38:00.513Z,37.28
2018-05-06T08:40:28.009Z,36.36
2018-05-06T08:42:55.526Z,36.60
2018-05-06T08:45:23.090Z,36.58
2018-05-06T08:47:50.621Z,36.71
2018-05-06T08:50:18.116Z,37.32
2018-05-06T08:52:45.643Z,37.42
2018-05-06T08:55:13.132Z,36.43
2018-05-06T08:57:40.628Z,36.77
2018-05-06T09:00:08.169Z,37.38
2018-05-06T09:02:35.685Z,37.46
2018-05-06T09:05:03.209Z,36.58
2018-05-06T09:07:30.701Z,36.60
2018-05-06T09:09:58.200Z,36.92
2018-05-06T09:12:25.686Z,37.21
2018-05-06T09:14:53.229Z,36.89
2018-05-06T09:17:20.709Z,37.69
2018-05-06T09:19:48.289Z,36.75
2018-05-06T09:22:15.749Z,36.85
2018-05-06T09:24:43.271Z,37.60
2018-05-06T09:27:10.766Z,36.79
2018-05-06T09:29:38.721Z,37.44
2018-05-06T09:32:06.205Z,36.65
2018-05-06T09:34:33.692Z,36.83
2018-05-06T09:37:02.078Z,36.16
2018-05-06T09:39:29.565Z,36.79
2018-05-06T09:41:57.733Z,36.94
2018-05-06T09:44:25.231Z,37.53
2018-05-06T09:46:52.717Z,37.32
2018-05-06T09:49:20.220Z,36.11
2018-05-06T09:51:47.736Z,36.10
2018-05-06T09:54:15.388Z,36.63
2018-05-06T09:56:42.868Z,36.44
2018-05-06T09:59:10.354Z,36.56
2018-05-06T10:01:38.001Z,36.10
2018-05-06T10:04:05.485Z,34.88
2018-05-06T10:06:32.997Z,34.89
2018-05-06T10:09:00.950Z,35.35
2018-05-06T10:11:28.433Z,35.58
2018-05-06T10:13:56.043Z,36.10
2018-05-06T10:16:23.601Z,35.77
2018-05-06T10:18:51.081Z,34.94
2018-05-06T10:21:18.617Z,35.06
2018-05-06T10:23:46.101Z,35.15
2018-05-06T10:26:13.681Z,34.46
2018-05-06T10:28:41.126Z,35.16
2018-05-06T10:31:08.601Z,34.09
2018-05-06T10:33:36.117Z,34.50
2018-05-06T10:36:03.595Z,34.21
2018-05-06T10:38:31.313Z,34.67
2018-05-06T10:40:58.814Z,34.80
2018-05-06T10:43:26.296Z,35.20
2018-05-06T10:45:53.826Z,33.90
2018-05-06T10:48:21.348Z,34.31
2018-05-06T10:50:49.057Z,32.70
2018-05-06T10:53:16.537Z,33.03
2018-05-06T10:55:44.022Z,33.65
2018-05-06T10:58:11.521Z,34.03
2018-05-06T11:00:39.040Z,33.60
2018-05-06T11:03:06.550Z,32.89
2018-05-06T11:05:34.037Z,34.07
2018-05-06T11:08:01.521Z,34.44
2018-05-06T11:10:29.181Z,34.19
2018-05-06T11:12:56.668Z,33.32
2018-05-06T11:15:24.449Z,33.36
2018-05-06T11:17:51.981Z,32.90
2018-05-06T11:20:19.465Z,33.54
2018-05-06T11:22:46.966Z,33.83
2018-05-06T11:25:14.472Z,33.39
2018-05-06T11:27:42.136Z,33.89
2018-05-06T11:30:09.625Z,34.55
2018-05-06T11:32:37.105Z,33.84
2018-05-06T11:35:04.614Z,33.01
2018-05-06T11:37:32.105Z,33.04
2018-05-06T11:39:59.762Z,33.32
2018-05-06T11:42:27.250Z,33.03
2018-05-06T11:44:54.826Z,33.36
2018-05-06T11:47:22.340Z,33.45
2018-05-06T11:49:49.816Z,33.20
2018-05-06T11:52:17.349Z,32.16
2018-05-06T11:54:44.829Z,32.94
2018-05-06T11:57:12.304Z,33.00
2018-05-06T11:59:39.813Z,32.37
2018-05-06T12:02:07.289Z,32.05
2018-05-06T12:04:35.172Z,32.25
2018-05-06T12:07:02.657Z,32.90
2018-05-06T12:09:30.136Z,32.78
2018-05-06T12:11:57.648Z,33.34
2018-05-06T12:14:25.125Z,32.72
2018-05-06T12:16:52.876Z,31.90
2018-05-06T12:19:20.353Z,31.87
2018-05-06T12:21:47.830Z,32.90
2018-05-06T12:24:15.366Z,31.03
2018-05-06T12:26:42.856Z,32.27
2018-05-06T12:29:10.593Z,32.49
2018-05-06T12:31:38.085Z,30.57
2018-05-06T12:34:05.569Z,29.54
2018-05-06T12:36:33.069Z,30.64
2018-05-06T12:39:00.552Z,31.62
2018-05-06T12:41:28.168Z,30.38
2018-05-06T12:43:55.657Z,30.44
2018-05-06T12:46:23.140Z,30.44
2018-05-06T12:48:50.648Z,29.55
2018-05-06T12:51:18.125Z,30.07
2018-05-06T12:53:45.848Z,29.41
2018-05-06T12:56:13.329Z,30.00
2018-05-06T12:58:40.844Z,28.82
2018-05-06T13:01:08.369Z,28.64
2018-05-06T13:03:35.857Z,28.84
2018-05-06T13:06:03.385Z,29.40
2018-05-06T13:08:30.860Z,29.48
2018-05-06T13:10:58.352Z,28.39
2018-05-06T13:13:25.869Z,28.56
2018-05-06T13:15:53.349Z,28.80
2018-05-06T13:18:21.305Z,28.42
2018-05-06T13:20:48.819Z,28.64
2018-05-06T13:23:16.298Z,27.88
2018-05-06T13:25:43.813Z,27.95
2018-05-06T13:28:11.293Z,27.92
2018-05-06T13:30:39.168Z,28.70
2018-05-06T13:33:06.645Z,27.32
2018-05-06T13:35:34.133Z,26.66
2018-05-06T13:38:01.641Z,28.12
2018-05-06T13:40:29.121Z,27.16
2018-05-06T13:42:56.953Z,26.97
2018-05-06T13:45:24.440Z,27.25
2018-05-06T13:47:51.941Z,27.06
2018-05-06T13:50:19.461Z,28.04
2018-05-06T13:52:46.962Z,27.95
2018-05-06T13:55:14.687Z,28.29
2018-05-06T13:57:42.184Z,29.06
2018-05-06T14:00:09.676Z,27.97
2018-05-06T14:02:37.181Z,27.57
2018-05-06T14:05:04.679Z,27.42
2018-05-06T14:07:32.341Z,26.84
2018-05-06T14:09:59.829Z,26.66
2018-05-06T14:12:27.305Z,27.47
2018-05-06T14:14:54.973Z,27.26
2018-05-06T14:17:22.449Z,27.84
2018-05-06T14:19:50.097Z,27.14
2018-05-06T14:22:17.585Z,28.54
2018-05-06T14:24:45.062Z,28.01
2018-05-06T14:27:12.758Z,28.71
2018-05-06T14:29:40.240Z,27.86
2018-05-06T14:32:07.964Z,28.34
2018-05-06T14:34:35.450Z,28.73
2018-05-06T14:37:02.951Z,29.32
2018-05-06T14:39:30.517Z,29.00
2018-05-06T14:41:58.031Z,29.11
2018-05-06T14:44:25.725Z,28.88
2018-05-06T14:47:05.017Z,28.75
2018-05-06T14:49:33.006Z,28.74
2018-05-06T14:52:00.501Z,29.27
2018-05-06T14:54:27.981Z,29.48
2018-05-06T14:56:55.512Z,30.25
2018-05-06T14:59:22.996Z,29.07
2018-05-06T15:01:50.707Z,29.81
2018-05-06T15:04:18.198Z,29.54
2018-05-06T15:06:45.701Z,29.52
2018-05-06T15:09:13.228Z,29.40
2018-05-06T15:11:40.713Z,29.30
2018-05-06T15:14:08.232Z,30.37
2018-05-06T15:16:35.717Z,29.50
2018-05-06T15:19:03.197Z,29.74
2018-05-06T15:21:30.705Z,28.38
2018-05-06T15:23:58.186Z,29.66
2018-05-06T15:26:26.116Z,29.19
2018-05-06T15:28:53.608Z,29.15
2018-05-06T15:31:21.086Z,29.38
2018-05-06T15:33:48.633Z,29.11
2018-05-06T15:36:16.118Z,30.22
2018-05-06T15:38:43.714Z,29.45
2018-05-06T15:41:11.294Z,28.15
2018-05-06T15:43:38.720Z,28.67
2018-05-06T15:46:06.249Z,29.04
2018-05-06T15:48:33.733Z,28.87
2018-05-06T15:51:01.450Z,29.37
2018-05-06T15:53:28.930Z,30.10
2018-05-06T15:55:56.416Z,29.76
2018-05-06T15:58:23.929Z,29.42
2018-05-06T16:00:51.412Z,29.95
2018-05-06T16:03:31.290Z,30.06
2018-05-06T16:05:58.773Z,30.21
2018-05-06T16:08:26.346Z,29.97
2018-05-06T16:10:53.860Z,30.30
2018-05-06T16:13:21.349Z,30.41
2018-05-06T16:15:48.873Z,31.01
2018-05-06T16:18:16.365Z,31.07
2018-05-06T16:20:43.849Z,30.51
2018-05-06T16:23:11.373Z,31.62
2018-05-06T16:25:38.857Z,31.27
2018-05-06T16:28:06.373Z,31.40
2018-05-06T16:30:33.861Z,31.09
2018-05-06T16:33:01.345Z,31.01
2018-05-06T16:35:28.880Z,31.01
2018-05-06T16:37:56.389Z,30.78
2018-05-06T16:40:23.926Z,30.63
2018-05-06T16:42:51.433Z,30.39
2018-05-06T16:45:18.917Z,30.14
2018-05-06T16:47:46.421Z,30.27
2018-05-06T16:50:13.916Z,29.90
2018-05-06T16:52:41.918Z,30.06
2018-05-06T16:55:09.426Z,30.89
2018-05-06T16:57:36.920Z,31.24
2018-05-06T17:00:04.429Z,30.67
2018-05-06T17:02:31.953Z,30.93
2018-05-06T17:04:59.470Z,30.17
2018-05-06T17:07:27.062Z,31.11
2018-05-06T17:09:54.522Z,31.17
2018-05-06T17:12:22.103Z,30.80
2018-05-06T17:14:49.624Z,30.78
2018-05-06T17:17:17.424Z,31.66
2018-05-06T17:19:45.001Z,31.32
2018-05-06T17:22:12.500Z,31.59
2018-05-06T17:24:39.978Z,31.97
2018-05-06T17:27:07.470Z,31.97
2018-05-06T17:29:35.129Z,32.41
2018-05-06T17:32:02.618Z,31.85
2018-05-06T17:34:30.127Z,32.18
2018-05-06T17:36:57.654Z,32.59
2018-05-06T17:39:25.148Z,32.42
2018-05-06T17:41:52.921Z,33.63
2018-05-06T17:44:20.457Z,33.90
2018-05-06T17:46:48.009Z,34.22
2018-05-06T17:49:15.557Z,34.53
2018-05-06T17:51:43.049Z,34.53
2018-05-06T17:54:11.256Z,34.96
2018-05-06T17:56:38.753Z,35.34
2018-05-06T17:59:06.248Z,35.92
2018-05-06T18:01:33.812Z,35.70
2018-05-06T18:04:01.302Z,36.10
2018-05-06T18:06:28.831Z,36.29
2018-05-06T18:08:56.684Z,36.71
2018-05-06T18:11:24.179Z,37.48
2018-05-06T18:13:51.721Z,37.59
2018-05-06T18:16:19.209Z,37.88
2018-05-06T18:18:47.150Z,37.95
2018-05-06T18:21:14.640Z,38.30
2018-05-06T18:23:42.185Z,38.75
2018-05-06T18:26:10.085Z,39.08
2018-05-06T18:28:37.576Z,39.63
2018-05-06T18:31:05.346Z,39.70
2018-05-06T18:33:32.869Z,40.00
2018-05-06T18:36:01.070Z,40.15
2018-05-06T18:38:28.591Z,40.45
2018-05-06T18:40:56.112Z,40.99
2018-05-06T18:43:23.899Z,41.66
2018-05-06T18:45:51.438Z,41.69
2018-05-06T18:48:18.956Z,42.08
2018-05-06T18:50:46.516Z,42.66
2018-05-06T18:53:14.042Z,42.65
2018-05-06T18:55:42.080Z,42.79
2018-05-06T18:58:09.862Z,43.62
2018-05-06T19:00:37.938Z,43.60
2018-05-06T19:03:05.486Z,43.71
2018-05-06T19:05:35.048Z,43.93
2018-05-06T19:08:03.481Z,43.17
2018-05-06T19:10:32.283Z,43.08
2018-05-06T19:13:00.207Z,43.53
2018-05-06T19:15:29.715Z,44.11
2018-05-06T19:17:59.204Z,44.28
2018-05-06T19:20:26.921Z,43.83
2018-05-06T19:22:54.713Z,44.79
2018-05-06T19:25:22.363Z,44.24
2018-05-06T19:27:50.136Z,44.38
2018-05-06T19:30:17.996Z,44.33
2018-05-06T19:32:46.085Z,44.74
2018-05-06T19:35:14.411Z,44.32
2018-05-06T19:37:43.417Z,44.06
2018-05-06T19:40:11.893Z,44.22
2018-05-06T19:42:41.319Z,44.47
2018-05-06T19:45:09.201Z,44.30
2018-05-06T19:47:37.175Z,44.87
2018-05-06T19:50:04.881Z,44.82
2018-05-06T19:52:32.833Z,45.11
2018-05-06T19:55:01.165Z,44.99
2018-05-06T19:57:28.837Z,45.17
2018-05-06T19:59:56.454Z,45.54
2018-05-06T20:02:25.274Z,45.68
2018-05-06T20:04:53.354Z,45.97
2018-05-06T20:07:21.436Z,45.96
2018-05-06T20:09:50.181Z,46.39
2018-05-06T20:12:18.328Z,46.89
2018-05-06T20:14:46.090Z,46.50
2018-05-06T20:17:13.672Z,46.42
2018-05-06T20:19:41.342Z,46.67
2018-05-06T20:22:09.183Z,47.22
2018-05-06T20:24:37.251Z,47.07
2018-05-06T20:27:04.775Z,47.61
2018-05-06T20:29:32.330Z,47.99
2018-05-06T20:32:00.105Z,48.01
2018-05-06T20:34:27.650Z,47.98
2018-05-06T20:36:55.304Z,47.87
2018-05-06T20:39:22.805Z,48.04
2018-05-06T20:41:50.856Z,48.06
2018-05-06T20:44:20.073Z,48.17
2018-05-06T20:46:47.697Z,47.95
2018-05-06T20:49:15.197Z,47.52
2018-05-06T20:51:42.687Z,47.17
2018-05-06T20:54:10.212Z,47.40
2018-05-06T20:56:37.708Z,46.98
2018-05-06T20:59:05.334Z,47.03
2018-05-06T21:01:32.824Z,47.25
2018-05-06T21:04:00.424Z,47.36
2018-05-06T21:06:27.861Z,47.96
2018-05-06T21:08:55.349Z,48.21
2018-05-06T21:11:23.099Z,48.38
2018-05-06T21:13:50.597Z,48.45
2018-05-06T21:16:18.141Z,48.85
2018-05-06T21:18:45.631Z,48.60
2018-05-06T21:21:13.126Z,48.91
2018-05-06T21:23:41.081Z,48.75
2018-05-06T21:26:08.565Z,49.09
2018-05-06T21:28:36.058Z,49.11
2018-05-06T21:31:03.793Z,49.16
2018-05-06T21:33:31.413Z,49.39
2018-05-06T21:35:59.161Z,49.69
2018-05-06T21:38:26.761Z,49.44
2018-05-06T21:40:54.249Z,49.62
2018-05-06T21:43:21.893Z,49.83
2018-05-06T21:45:49.279Z,49.74
2018-05-06T21:48:16.833Z,49.94
2018-05-06T21:50:44.333Z,49.92
2018-05-06T21:53:11.841Z,49.68
2018-05-06T21:55:39.345Z,50.00
2018-05-06T21:58:06.841Z,50.04
2018-05-06T22:00:34.524Z,50.30
2018-05-06T22:03:02.009Z,50.01
2018-05-06T22:05:29.497Z,50.09
2018-05-06T22:07:57.017Z,49.80
2018-05-06T22:10:24.500Z,49.93
2018-05-06T22:12:52.381Z,49.98
2018-05-06T22:15:19.869Z,50.19
2018-05-06T22:17:47.365Z,49.92
2018-05-06T22:20:14.869Z,49.77
2018-05-06T22:22:42.349Z,49.84
2018-05-06T22:25:10.033Z,49.80
2018-05-06T22:27:37.513Z,50.08
2018-05-06T22:30:05.129Z,50.20
2018-05-06T22:32:32.641Z,50.42
2018-05-06T22:35:00.121Z,50.44
2018-05-06T22:37:27.651Z,50.38
2018-05-06T22:39:55.148Z,50.19
2018-05-06T22:42:22.629Z,50.24
2018-05-06T22:44:50.136Z,50.29
2018-05-06T22:47:17.613Z,50.34
2018-05-06T22:49:45.356Z,50.64
2018-05-06T22:52:12.844Z,50.59
2018-05-06T22:54:40.321Z,50.47
2018-05-06T22:57:07.824Z,50.48
2018-05-06T22:59:35.339Z,50.01
2018-05-06T23:02:03.113Z,50.33
2018-05-06T23:04:30.608Z,50.14
2018-05-06T23:06:58.097Z,50.24
2018-05-06T23:09:25.604Z,50.03
2018-05-06T23:11:53.092Z,49.95
2018-05-06T23:14:20.779Z,50.18
2018-05-06T23:16:48.269Z,50.44
2018-05-06T23:19:15.750Z,50.25
2018-05-06T23:21:43.306Z,50.33
2018-05-06T23:24:10.761Z,50.65
2018-05-06T23:26:38.288Z,50.70
2018-05-06T23:29:05.817Z,50.91
2018-05-06T23:31:33.312Z,51.17
2018-05-06T23:34:00.813Z,51.26
2018-05-06T23:36:28.293Z,51.16
2018-05-06T23:38:55.818Z,51.41
2018-05-06T23:41:23.359Z,51.48
2018-05-06T23:43:50.927Z,51.54
2018-05-06T23:46:18.377Z,51.56
2018-05-06T23:48:45.873Z,51.82
2018-05-06T23:51:13.739Z,51.95
2018-05-06T23:53:41.225Z,52.29
2018-05-06T23:56:08.720Z,52.30
2018-05-06T23:58:36.222Z,52.17
